sensor_id;sensor_type;location;lat;lon;timestamp;P1;durP1;ratioP1;P2;durP2;ratioP2
52434;SDS011;38354;52.892;6.148;2022-12-07T04:01:02;11.70;;;1.63;;
52434;SDS011;38354;52.892;6.148;2022-12-07T04:03:28;14.20;;;2.13;;
52434;SDS011;38354;52.892;6.148;2022-12-07T04:05:54;11.60;;;1.77;;
52434;SDS011;38354;52.892;6.148;2022-12-07T04:08:19;8.50;;;1.02;;
52434;SDS011;38354;52.892;6.148;2022-12-07T04:10:45;9.95;;;1.20;;
52434;SDS011;38354;52.892;6.148;2022-12-07T04:13:11;10.20;;;2.05;;
52434;SDS011;38354;52.892;6.148;2022-12-07T04:15:37;5.22;;;0.90;;
52434;SDS011;38354;52.892;6.148;2022-12-07T04:18:02;15.10;;;1.13;;
52434;SDS011;38354;52.892;6.148;2022-12-07T04:20:28;9.88;;;1.00;;
52434;SDS011;38354;52.892;6.148;2022-12-07T04:22:54;7.90;;;1.65;;
52434;SDS011;38354;52.892;6.148;2022-12-07T04:25:19;6.32;;;1.20;;
52434;SDS011;38354;52.892;6.148;2022-12-07T04:27:45;7.72;;;1.50;;
52434;SDS011;38354;52.892;6.148;2022-12-07T04:30:10;13.35;;;2.35;;
52434;SDS011;38354;52.892;6.148;2022-12-07T04:32:36;7.35;;;0.80;;
52434;SDS011;38354;52.892;6.148;2022-12-07T04:35:02;7.25;;;1.20;;
52434;SDS011;38354;52.892;6.148;2022-12-07T04:37:28;4.93;;;1.33;;
52434;SDS011;38354;52.892;6.148;2022-12-07T04:39:54;6.68;;;0.80;;
52434;SDS011;38354;52.892;6.148;2022-12-07T04:42:19;9.75;;;0.90;;
52434;SDS011;38354;52.892;6.148;2022-12-07T04:44:45;7.45;;;0.85;;
52434;SDS011;38354;52.892;6.148;2022-12-07T04:47:11;7.82;;;1.63;;
52434;SDS011;38354;52.892;6.148;2022-12-07T04:49:36;7.40;;;1.17;;
52434;SDS011;38354;52.892;6.148;2022-12-07T04:52:02;7.32;;;0.90;;
52434;SDS011;38354;52.892;6.148;2022-12-07T04:54:28;8.07;;;0.95;;
52434;SDS011;38354;52.892;6.148;2022-12-07T04:56:53;3.53;;;0.65;;
52434;SDS011;38354;52.892;6.148;2022-12-07T04:59:19;9.02;;;1.10;;
52434;SDS011;38354;52.892;6.148;2022-12-07T05:01:45;8.77;;;1.00;;
52434;SDS011;38354;52.892;6.148;2022-12-07T05:04:10;11.27;;;1.00;;
52434;SDS011;38354;52.892;6.148;2022-12-07T05:06:36;5.97;;;1.50;;
52434;SDS011;38354;52.892;6.148;2022-12-07T05:09:02;8.55;;;0.95;;
52434;SDS011;38354;52.892;6.148;2022-12-07T05:11:28;9.45;;;1.02;;
52434;SDS011;38354;52.892;6.148;2022-12-07T05:14:04;9.05;;;0.80;;
52434;SDS011;38354;52.892;6.148;2022-12-07T05:16:45;8.88;;;1.17;;
52434;SDS011;38354;52.892;6.148;2022-12-07T05:19:13;6.78;;;1.00;;
52434;SDS011;38354;52.892;6.148;2022-12-07T05:21:39;7.93;;;1.20;;
52434;SDS011;38354;52.892;6.148;2022-12-07T05:24:05;12.13;;;1.63;;
52434;SDS011;38354;52.892;6.148;2022-12-07T05:26:32;6.38;;;1.23;;
52434;SDS011;38354;52.892;6.148;2022-12-07T05:28:58;12.52;;;1.60;;
52434;SDS011;38354;52.892;6.148;2022-12-07T05:31:24;8.13;;;1.52;;
52434;SDS011;38354;52.892;6.148;2022-12-07T05:33:51;12.25;;;1.75;;
52434;SDS011;38354;52.892;6.148;2022-12-07T05:36:17;10.23;;;1.60;;
52434;SDS011;38354;52.892;6.148;2022-12-07T05:38:43;6.53;;;1.35;;
52434;SDS011;38354;52.892;6.148;2022-12-07T05:41:09;10.65;;;1.75;;
52434;SDS011;38354;52.892;6.148;2022-12-07T05:43:58;6.63;;;1.20;;
52434;SDS011;38354;52.892;6.148;2022-12-07T05:46:23;8.00;;;1.33;;
52434;SDS011;38354;52.892;6.148;2022-12-07T05:48:49;5.18;;;1.17;;
52434;SDS011;38354;52.892;6.148;2022-12-07T05:51:15;9.82;;;1.45;;
52434;SDS011;38354;52.892;6.148;2022-12-07T05:53:41;8.38;;;1.10;;
52434;SDS011;38354;52.892;6.148;2022-12-07T05:56:07;11.35;;;2.95;;
52434;SDS011;38354;52.892;6.148;2022-12-07T05:58:32;8.55;;;3.00;;
52434;SDS011;38354;52.892;6.148;2022-12-07T06:01:16;13.55;;;2.67;;
52434;SDS011;38354;52.892;6.148;2022-12-07T06:03:42;8.43;;;1.92;;
52434;SDS011;38354;52.892;6.148;2022-12-07T06:06:08;25.77;;;4.25;;
52434;SDS011;38354;52.892;6.148;2022-12-07T06:08:33;32.60;;;6.97;;
52434;SDS011;38354;52.892;6.148;2022-12-07T06:10:59;35.25;;;5.88;;
52434;SDS011;38354;52.892;6.148;2022-12-07T06:13:57;37.72;;;6.07;;
52434;SDS011;38354;52.892;6.148;2022-12-07T06:16:22;8.80;;;2.08;;
52434;SDS011;38354;52.892;6.148;2022-12-07T06:18:48;13.07;;;2.03;;
52434;SDS011;38354;52.892;6.148;2022-12-07T06:21:13;7.03;;;1.10;;
52434;SDS011;38354;52.892;6.148;2022-12-07T06:23:39;6.55;;;1.45;;
52434;SDS011;38354;52.892;6.148;2022-12-07T06:26:05;5.03;;;1.10;;
52434;SDS011;38354;52.892;6.148;2022-12-07T06:28:31;3.97;;;0.73;;
52434;SDS011;38354;52.892;6.148;2022-12-07T06:31:00;11.98;;;1.30;;
52434;SDS011;38354;52.892;6.148;2022-12-07T06:33:26;4.40;;;1.00;;
52434;SDS011;38354;52.892;6.148;2022-12-07T06:35:52;10.02;;;1.98;;
52434;SDS011;38354;52.892;6.148;2022-12-07T06:38:18;7.65;;;0.82;;
52434;SDS011;38354;52.892;6.148;2022-12-07T06:40:44;10.32;;;1.27;;
52434;SDS011;38354;52.892;6.148;2022-12-07T06:43:10;7.40;;;1.08;;
52434;SDS011;38354;52.892;6.148;2022-12-07T06:45:35;12.07;;;1.30;;
52434;SDS011;38354;52.892;6.148;2022-12-07T06:48:04;9.43;;;1.20;;
52434;SDS011;38354;52.892;6.148;2022-12-07T06:50:30;5.18;;;0.93;;
52434;SDS011;38354;52.892;6.148;2022-12-07T06:52:55;7.82;;;1.90;;
52434;SDS011;38354;52.892;6.148;2022-12-07T06:55:21;13.27;;;3.85;;
52434;SDS011;38354;52.892;6.148;2022-12-07T06:57:47;36.75;;;15.13;;
52434;SDS011;38354;52.892;6.148;2022-12-07T07:00:13;47.10;;;14.10;;
52434;SDS011;38354;52.892;6.148;2022-12-07T07:02:39;46.05;;;14.23;;
52434;SDS011;38354;52.892;6.148;2022-12-07T07:05:04;23.50;;;5.68;;
52434;SDS011;38354;52.892;6.148;2022-12-07T07:07:30;14.80;;;5.28;;
52434;SDS011;38354;52.892;6.148;2022-12-07T07:09:56;13.68;;;5.57;;
52434;SDS011;38354;52.892;6.148;2022-12-07T07:12:21;9.45;;;3.55;;
52434;SDS011;38354;52.892;6.148;2022-12-07T07:14:47;15.07;;;3.05;;
52434;SDS011;38354;52.892;6.148;2022-12-07T07:17:13;12.88;;;1.83;;
52434;SDS011;38354;52.892;6.148;2022-12-07T07:19:38;10.43;;;1.90;;
52434;SDS011;38354;52.892;6.148;2022-12-07T07:22:04;9.63;;;1.40;;
52434;SDS011;38354;52.892;6.148;2022-12-07T07:24:30;7.28;;;1.45;;
52434;SDS011;38354;52.892;6.148;2022-12-07T07:26:55;11.20;;;1.63;;
52434;SDS011;38354;52.892;6.148;2022-12-07T07:29:21;11.43;;;1.50;;
52434;SDS011;38354;52.892;6.148;2022-12-07T07:31:47;8.77;;;2.53;;
52434;SDS011;38354;52.892;6.148;2022-12-07T07:34:13;13.10;;;2.90;;
52434;SDS011;38354;52.892;6.148;2022-12-07T07:36:38;11.45;;;3.15;;
52434;SDS011;38354;52.892;6.148;2022-12-07T07:39:04;8.80;;;1.73;;
52434;SDS011;38354;52.892;6.148;2022-12-07T07:41:30;9.93;;;1.58;;
52434;SDS011;38354;52.892;6.148;2022-12-07T07:43:57;11.60;;;2.28;;
52434;SDS011;38354;52.892;6.148;2022-12-07T07:46:23;10.32;;;1.60;;
52434;SDS011;38354;52.892;6.148;2022-12-07T07:48:48;8.85;;;1.27;;
52434;SDS011;38354;52.892;6.148;2022-12-07T07:51:14;15.43;;;3.65;;
52434;SDS011;38354;52.892;6.148;2022-12-07T07:53:40;13.60;;;3.47;;
52434;SDS011;38354;52.892;6.148;2022-12-07T07:56:05;18.67;;;6.78;;
52434;SDS011;38354;52.892;6.148;2022-12-07T07:58:31;13.38;;;7.65;;
52434;SDS011;38354;52.892;6.148;2022-12-07T08:00:57;15.18;;;5.07;;
52434;SDS011;38354;52.892;6.148;2022-12-07T08:03:31;11.27;;;4.60;;
52434;SDS011;38354;52.892;6.148;2022-12-07T08:06:07;11.90;;;3.33;;
52434;SDS011;38354;52.892;6.148;2022-12-07T08:08:33;13.57;;;4.55;;
52434;SDS011;38354;52.892;6.148;2022-12-07T08:10:58;15.73;;;5.45;;
52434;SDS011;38354;52.892;6.148;2022-12-07T08:13:26;15.88;;;7.75;;
52434;SDS011;38354;52.892;6.148;2022-12-07T08:15:52;20.40;;;8.85;;
52434;SDS011;38354;52.892;6.148;2022-12-07T08:18:17;12.13;;;5.78;;
52434;SDS011;38354;52.892;6.148;2022-12-07T08:20:43;13.32;;;5.07;;
52434;SDS011;38354;52.892;6.148;2022-12-07T08:23:09;8.57;;;3.88;;
52434;SDS011;38354;52.892;6.148;2022-12-07T08:25:35;13.73;;;2.97;;
52434;SDS011;38354;52.892;6.148;2022-12-07T08:28:01;12.18;;;2.60;;
52434;SDS011;38354;52.892;6.148;2022-12-07T08:30:28;18.77;;;4.40;;
52434;SDS011;38354;52.892;6.148;2022-12-07T08:32:54;5.68;;;2.92;;
52434;SDS011;38354;52.892;6.148;2022-12-07T08:35:21;19.05;;;4.70;;
52434;SDS011;38354;52.892;6.148;2022-12-07T08:37:46;12.48;;;4.38;;
52434;SDS011;38354;52.892;6.148;2022-12-07T08:40:12;9.90;;;3.35;;
52434;SDS011;38354;52.892;6.148;2022-12-07T08:42:41;9.23;;;2.88;;
52434;SDS011;38354;52.892;6.148;2022-12-07T08:45:13;18.85;;;4.38;;
52434;SDS011;38354;52.892;6.148;2022-12-07T08:47:42;15.35;;;4.20;;
52434;SDS011;38354;52.892;6.148;2022-12-07T08:50:15;79.30;;;19.90;;
52434;SDS011;38354;52.892;6.148;2022-12-07T08:52:42;31.42;;;7.50;;
52434;SDS011;38354;52.892;6.148;2022-12-07T08:55:11;49.80;;;12.30;;
52434;SDS011;38354;52.892;6.148;2022-12-07T08:57:37;45.60;;;11.40;;
52434;SDS011;38354;52.892;6.148;2022-12-07T09:00:04;34.28;;;9.23;;
52434;SDS011;38354;52.892;6.148;2022-12-07T09:02:31;13.10;;;2.97;;
52434;SDS011;38354;52.892;6.148;2022-12-07T09:04:56;8.70;;;2.28;;
52434;SDS011;38354;52.892;6.148;2022-12-07T09:07:22;12.85;;;3.05;;
52434;SDS011;38354;52.892;6.148;2022-12-07T09:09:49;16.23;;;2.30;;
52434;SDS011;38354;52.892;6.148;2022-12-07T09:12:14;9.35;;;2.35;;
52434;SDS011;38354;52.892;6.148;2022-12-07T09:14:40;11.63;;;2.22;;
52434;SDS011;38354;52.892;6.148;2022-12-07T09:17:07;9.80;;;2.65;;
52434;SDS011;38354;52.892;6.148;2022-12-07T09:19:33;10.95;;;2.30;;
52434;SDS011;38354;52.892;6.148;2022-12-07T09:21:59;8.82;;;2.10;;
52434;SDS011;38354;52.892;6.148;2022-12-07T09:24:24;14.13;;;2.70;;
52434;SDS011;38354;52.892;6.148;2022-12-07T09:26:50;15.82;;;1.70;;
52434;SDS011;38354;52.892;6.148;2022-12-07T09:29:16;7.07;;;1.60;;
52434;SDS011;38354;52.892;6.148;2022-12-07T09:31:41;11.85;;;2.80;;
52434;SDS011;38354;52.892;6.148;2022-12-07T09:34:07;9.60;;;2.45;;
52434;SDS011;38354;52.892;6.148;2022-12-07T09:36:33;10.30;;;3.10;;
52434;SDS011;38354;52.892;6.148;2022-12-07T09:38:59;6.35;;;1.63;;
52434;SDS011;38354;52.892;6.148;2022-12-07T09:41:25;7.35;;;1.48;;
52434;SDS011;38354;52.892;6.148;2022-12-07T09:43:53;7.50;;;1.70;;
52434;SDS011;38354;52.892;6.148;2022-12-07T09:46:27;16.27;;;3.25;;
52434;SDS011;38354;52.892;6.148;2022-12-07T09:48:55;17.35;;;5.03;;
52434;SDS011;38354;52.892;6.148;2022-12-07T09:51:22;19.80;;;4.28;;
52434;SDS011;38354;52.892;6.148;2022-12-07T09:53:49;6.10;;;1.90;;
52434;SDS011;38354;52.892;6.148;2022-12-07T09:56:17;10.13;;;2.47;;
52434;SDS011;38354;52.892;6.148;2022-12-07T09:58:44;5.25;;;1.70;;
52434;SDS011;38354;52.892;6.148;2022-12-07T10:01:12;5.75;;;1.85;;
52434;SDS011;38354;52.892;6.148;2022-12-07T10:03:42;5.63;;;1.30;;
52434;SDS011;38354;52.892;6.148;2022-12-07T10:06:21;5.78;;;1.10;;
52434;SDS011;38354;52.892;6.148;2022-12-07T10:08:47;9.50;;;2.22;;
52434;SDS011;38354;52.892;6.148;2022-12-07T10:11:12;9.30;;;2.05;;
52434;SDS011;38354;52.892;6.148;2022-12-07T10:13:40;9.10;;;2.38;;
52434;SDS011;38354;52.892;6.148;2022-12-07T10:16:26;12.13;;;2.58;;
52434;SDS011;38354;52.892;6.148;2022-12-07T10:18:57;5.75;;;1.10;;
52434;SDS011;38354;52.892;6.148;2022-12-07T10:24:33;11.25;;;2.03;;
52434;SDS011;38354;52.892;6.148;2022-12-07T10:26:59;6.70;;;1.65;;
52434;SDS011;38354;52.892;6.148;2022-12-07T10:29:29;10.57;;;2.85;;
52434;SDS011;38354;52.892;6.148;2022-12-07T10:32:05;5.00;;;1.23;;
52434;SDS011;38354;52.892;6.148;2022-12-07T10:34:50;11.27;;;2.22;;
52434;SDS011;38354;52.892;6.148;2022-12-07T10:37:17;11.93;;;3.30;;
52434;SDS011;38354;52.892;6.148;2022-12-07T10:47:38;8.68;;;1.90;;
52434;SDS011;38354;52.892;6.148;2022-12-07T10:50:47;8.13;;;2.00;;
52434;SDS011;38354;52.892;6.148;2022-12-07T10:53:28;10.82;;;1.63;;
52434;SDS011;38354;52.892;6.148;2022-12-07T10:59:01;13.25;;;1.48;;
52434;SDS011;38354;52.892;6.148;2022-12-07T11:07:18;7.20;;;1.30;;
52434;SDS011;38354;52.892;6.148;2022-12-07T11:10:02;7.05;;;1.30;;
52434;SDS011;38354;52.892;6.148;2022-12-07T11:21:30;7.47;;;1.85;;
52434;SDS011;38354;52.892;6.148;2022-12-07T11:26:38;7.50;;;1.60;;
52434;SDS011;38354;52.892;6.148;2022-12-07T11:37:57;9.75;;;1.83;;
52434;SDS011;38354;52.892;6.148;2022-12-07T11:40:36;5.85;;;1.13;;
52434;SDS011;38354;52.892;6.148;2022-12-07T11:45:59;6.70;;;0.90;;
52434;SDS011;38354;52.892;6.148;2022-12-07T11:51:36;5.55;;;1.60;;
52434;SDS011;38354;52.892;6.148;2022-12-07T11:56:54;7.60;;;1.05;;
52434;SDS011;38354;52.892;6.148;2022-12-07T11:59:23;6.07;;;1.00;;
52434;SDS011;38354;52.892;6.148;2022-12-07T12:01:56;2.53;;;0.85;;
52434;SDS011;38354;52.892;6.148;2022-12-07T12:06:57;4.55;;;0.90;;
52434;SDS011;38354;52.892;6.148;2022-12-07T12:09:43;8.15;;;1.17;;
52434;SDS011;38354;52.892;6.148;2022-12-07T12:12:37;10.18;;;1.33;;
52434;SDS011;38354;52.892;6.148;2022-12-07T12:20:49;7.20;;;1.25;;
52434;SDS011;38354;52.892;6.148;2022-12-07T12:23:50;10.23;;;1.58;;
52434;SDS011;38354;52.892;6.148;2022-12-07T12:26:35;9.05;;;1.70;;
52434;SDS011;38354;52.892;6.148;2022-12-07T12:29:03;5.70;;;1.60;;
52434;SDS011;38354;52.892;6.148;2022-12-07T12:31:35;8.95;;;2.38;;
52434;SDS011;38354;52.892;6.148;2022-12-07T12:34:10;6.88;;;1.30;;
52434;SDS011;38354;52.892;6.148;2022-12-07T12:36:55;10.18;;;1.60;;
52434;SDS011;38354;52.892;6.148;2022-12-07T12:39:21;7.30;;;1.70;;
52434;SDS011;38354;52.892;6.148;2022-12-07T12:46:57;6.85;;;1.60;;
52434;SDS011;38354;52.892;6.148;2022-12-07T12:51:50;10.40;;;1.20;;
52434;SDS011;38354;52.892;6.148;2022-12-07T12:56:55;6.15;;;1.00;;
52434;SDS011;38354;52.892;6.148;2022-12-07T12:59:32;7.88;;;2.25;;
52434;SDS011;38354;52.892;6.148;2022-12-07T13:15:43;4.70;;;0.60;;
52434;SDS011;38354;52.892;6.148;2022-12-07T13:18:24;6.63;;;0.90;;
52434;SDS011;38354;52.892;6.148;2022-12-07T13:20:53;3.83;;;0.75;;
52434;SDS011;38354;52.892;6.148;2022-12-07T13:23:37;4.97;;;0.88;;
52434;SDS011;38354;52.892;6.148;2022-12-07T13:26:19;3.72;;;0.80;;
52434;SDS011;38354;52.892;6.148;2022-12-07T13:34:01;5.70;;;0.90;;
52434;SDS011;38354;52.892;6.148;2022-12-07T13:36:32;5.28;;;0.90;;
52434;SDS011;38354;52.892;6.148;2022-12-07T13:41:41;8.88;;;1.30;;
52434;SDS011;38354;52.892;6.148;2022-12-07T13:44:12;4.05;;;1.05;;
52434;SDS011;38354;52.892;6.148;2022-12-07T13:49:30;3.88;;;0.68;;
52434;SDS011;38354;52.892;6.148;2022-12-07T13:57:16;4.30;;;0.80;;
52434;SDS011;38354;52.892;6.148;2022-12-07T13:59:42;7.60;;;1.20;;
52434;SDS011;38354;52.892;6.148;2022-12-07T14:02:18;13.10;;;1.50;;
52434;SDS011;38354;52.892;6.148;2022-12-07T14:13:34;8.88;;;1.10;;
52434;SDS011;38354;52.892;6.148;2022-12-07T14:16:17;4.47;;;0.80;;
52434;SDS011;38354;52.892;6.148;2022-12-07T14:18:44;4.45;;;0.98;;
52434;SDS011;38354;52.892;6.148;2022-12-07T14:23:35;8.32;;;1.60;;
52434;SDS011;38354;52.892;6.148;2022-12-07T14:26:15;6.43;;;1.00;;
52434;SDS011;38354;52.892;6.148;2022-12-07T14:28:44;14.90;;;3.00;;
52434;SDS011;38354;52.892;6.148;2022-12-07T14:31:12;10.20;;;1.67;;
52434;SDS011;38354;52.892;6.148;2022-12-07T14:33:40;11.23;;;3.03;;
52434;SDS011;38354;52.892;6.148;2022-12-07T14:36:13;11.35;;;2.13;;
52434;SDS011;38354;52.892;6.148;2022-12-07T14:38:39;12.50;;;1.90;;
52434;SDS011;38354;52.892;6.148;2022-12-07T14:41:15;9.20;;;1.38;;
52434;SDS011;38354;52.892;6.148;2022-12-07T14:44:11;10.82;;;1.60;;
52434;SDS011;38354;52.892;6.148;2022-12-07T14:46:37;8.13;;;2.10;;
52434;SDS011;38354;52.892;6.148;2022-12-07T14:49:03;7.72;;;2.28;;
52434;SDS011;38354;52.892;6.148;2022-12-07T14:51:28;9.95;;;2.40;;
52434;SDS011;38354;52.892;6.148;2022-12-07T14:53:54;8.95;;;1.50;;
52434;SDS011;38354;52.892;6.148;2022-12-07T14:56:20;6.90;;;0.98;;
52434;SDS011;38354;52.892;6.148;2022-12-07T14:58:45;8.90;;;2.33;;
52434;SDS011;38354;52.892;6.148;2022-12-07T15:01:13;2.88;;;1.15;;
52434;SDS011;38354;52.892;6.148;2022-12-07T15:03:41;6.55;;;1.58;;
52434;SDS011;38354;52.892;6.148;2022-12-07T15:06:07;4.05;;;0.88;;
52434;SDS011;38354;52.892;6.148;2022-12-07T15:08:37;1.90;;;0.70;;
52434;SDS011;38354;52.892;6.148;2022-12-07T15:11:03;6.28;;;1.25;;
52434;SDS011;38354;52.892;6.148;2022-12-07T15:13:29;9.38;;;0.88;;
52434;SDS011;38354;52.892;6.148;2022-12-07T15:16:14;4.63;;;0.73;;
52434;SDS011;38354;52.892;6.148;2022-12-07T15:18:44;4.15;;;0.90;;
52434;SDS011;38354;52.892;6.148;2022-12-07T15:21:13;3.78;;;1.30;;
52434;SDS011;38354;52.892;6.148;2022-12-07T15:23:40;5.47;;;1.80;;
52434;SDS011;38354;52.892;6.148;2022-12-07T15:26:06;3.67;;;1.20;;
52434;SDS011;38354;52.892;6.148;2022-12-07T15:28:33;6.38;;;2.35;;
52434;SDS011;38354;52.892;6.148;2022-12-07T15:30:59;5.88;;;1.23;;
52434;SDS011;38354;52.892;6.148;2022-12-07T15:33:24;5.03;;;1.25;;
52434;SDS011;38354;52.892;6.148;2022-12-07T15:35:50;4.70;;;1.00;;
52434;SDS011;38354;52.892;6.148;2022-12-07T15:38:15;4.22;;;1.25;;
52434;SDS011;38354;52.892;6.148;2022-12-07T15:40:41;6.75;;;1.60;;
52434;SDS011;38354;52.892;6.148;2022-12-07T15:43:08;3.00;;;1.50;;
52434;SDS011;38354;52.892;6.148;2022-12-07T15:45:54;4.45;;;1.40;;
52434;SDS011;38354;52.892;6.148;2022-12-07T15:48:20;5.45;;;1.50;;
52434;SDS011;38354;52.892;6.148;2022-12-07T15:50:45;6.25;;;1.85;;
52434;SDS011;38354;52.892;6.148;2022-12-07T15:53:11;5.18;;;1.30;;
52434;SDS011;38354;52.892;6.148;2022-12-07T15:55:40;4.00;;;1.15;;
52434;SDS011;38354;52.892;6.148;2022-12-07T15:58:06;6.80;;;1.73;;
52434;SDS011;38354;52.892;6.148;2022-12-07T16:00:31;7.00;;;2.20;;
52434;SDS011;38354;52.892;6.148;2022-12-07T16:02:58;6.80;;;2.15;;
52434;SDS011;38354;52.892;6.148;2022-12-07T16:05:24;6.60;;;2.80;;
52434;SDS011;38354;52.892;6.148;2022-12-07T16:07:49;10.23;;;4.18;;
52434;SDS011;38354;52.892;6.148;2022-12-07T16:10:15;4.10;;;1.42;;
52434;SDS011;38354;52.892;6.148;2022-12-07T16:12:40;4.63;;;1.40;;
52434;SDS011;38354;52.892;6.148;2022-12-07T16:15:06;4.65;;;2.20;;
52434;SDS011;38354;52.892;6.148;2022-12-07T16:17:32;7.28;;;1.83;;
52434;SDS011;38354;52.892;6.148;2022-12-07T16:19:58;7.40;;;1.75;;
52434;SDS011;38354;52.892;6.148;2022-12-07T16:22:23;7.72;;;1.35;;
52434;SDS011;38354;52.892;6.148;2022-12-07T16:24:49;8.27;;;1.50;;
52434;SDS011;38354;52.892;6.148;2022-12-07T16:27:15;5.78;;;1.70;;
52434;SDS011;38354;52.892;6.148;2022-12-07T16:29:40;5.28;;;1.50;;
52434;SDS011;38354;52.892;6.148;2022-12-07T16:32:06;6.40;;;1.20;;
52434;SDS011;38354;52.892;6.148;2022-12-07T16:34:32;7.10;;;1.50;;
52434;SDS011;38354;52.892;6.148;2022-12-07T16:36:58;5.88;;;1.35;;
52434;SDS011;38354;52.892;6.148;2022-12-07T16:39:26;8.70;;;1.73;;
52434;SDS011;38354;52.892;6.148;2022-12-07T16:41:52;6.05;;;2.00;;
52434;SDS011;38354;52.892;6.148;2022-12-07T16:44:18;17.73;;;6.43;;
52434;SDS011;38354;52.892;6.148;2022-12-07T16:46:43;13.35;;;5.00;;
52434;SDS011;38354;52.892;6.148;2022-12-07T16:49:11;10.90;;;5.25;;
52434;SDS011;38354;52.892;6.148;2022-12-07T16:51:38;10.25;;;4.10;;
52434;SDS011;38354;52.892;6.148;2022-12-07T16:54:04;13.30;;;4.13;;
52434;SDS011;38354;52.892;6.148;2022-12-07T16:56:29;7.85;;;3.75;;
52434;SDS011;38354;52.892;6.148;2022-12-07T16:58:57;14.30;;;5.63;;
52434;SDS011;38354;52.892;6.148;2022-12-07T17:01:23;19.50;;;11.27;;
52434;SDS011;38354;52.892;6.148;2022-12-07T17:03:49;11.57;;;4.10;;
52434;SDS011;38354;52.892;6.148;2022-12-07T17:06:19;16.73;;;7.32;;
52434;SDS011;38354;52.892;6.148;2022-12-07T17:08:47;19.45;;;8.10;;
52434;SDS011;38354;52.892;6.148;2022-12-07T17:11:17;8.57;;;3.55;;
52434;SDS011;38354;52.892;6.148;2022-12-07T17:13:44;6.53;;;3.25;;
52434;SDS011;38354;52.892;6.148;2022-12-07T17:16:29;9.20;;;3.13;;
52434;SDS011;38354;52.892;6.148;2022-12-07T17:18:56;8.27;;;3.67;;
52434;SDS011;38354;52.892;6.148;2022-12-07T17:21:21;8.35;;;3.45;;
52434;SDS011;38354;52.892;6.148;2022-12-07T17:23:48;8.82;;;2.85;;
52434;SDS011;38354;52.892;6.148;2022-12-07T17:26:18;8.63;;;3.15;;
52434;SDS011;38354;52.892;6.148;2022-12-07T17:28:46;9.77;;;2.20;;
52434;SDS011;38354;52.892;6.148;2022-12-07T17:31:13;7.55;;;2.45;;
52434;SDS011;38354;52.892;6.148;2022-12-07T17:33:41;6.07;;;2.72;;
52434;SDS011;38354;52.892;6.148;2022-12-07T17:36:10;9.52;;;3.88;;
52434;SDS011;38354;52.892;6.148;2022-12-07T17:38:38;6.82;;;2.75;;
52434;SDS011;38354;52.892;6.148;2022-12-07T17:44:03;5.35;;;2.25;;
52434;SDS011;38354;52.892;6.148;2022-12-07T17:46:31;6.78;;;2.25;;
52434;SDS011;38354;52.892;6.148;2022-12-07T17:48:57;6.55;;;2.20;;
52434;SDS011;38354;52.892;6.148;2022-12-07T17:51:23;11.73;;;2.20;;
52434;SDS011;38354;52.892;6.148;2022-12-07T17:54:08;8.48;;;2.08;;
52434;SDS011;38354;52.892;6.148;2022-12-07T17:56:34;6.55;;;1.85;;
52434;SDS011;38354;52.892;6.148;2022-12-07T17:59:00;4.68;;;2.05;;
52434;SDS011;38354;52.892;6.148;2022-12-07T18:01:26;9.35;;;1.80;;
52434;SDS011;38354;52.892;6.148;2022-12-07T18:03:52;4.63;;;1.70;;
52434;SDS011;38354;52.892;6.148;2022-12-07T18:06:17;6.15;;;1.80;;
52434;SDS011;38354;52.892;6.148;2022-12-07T18:08:43;8.32;;;1.70;;
52434;SDS011;38354;52.892;6.148;2022-12-07T18:11:09;9.07;;;2.10;;
52434;SDS011;38354;52.892;6.148;2022-12-07T18:13:35;10.10;;;2.60;;
52434;SDS011;38354;52.892;6.148;2022-12-07T18:16:04;11.65;;;3.80;;
52434;SDS011;38354;52.892;6.148;2022-12-07T18:18:36;9.20;;;2.50;;
52434;SDS011;38354;52.892;6.148;2022-12-07T18:21:06;8.52;;;2.88;;
52434;SDS011;38354;52.892;6.148;2022-12-07T18:23:37;10.32;;;2.88;;
52434;SDS011;38354;52.892;6.148;2022-12-07T18:26:03;7.00;;;2.10;;
52434;SDS011;38354;52.892;6.148;2022-12-07T18:28:29;4.10;;;2.15;;
52434;SDS011;38354;52.892;6.148;2022-12-07T18:30:55;8.50;;;2.88;;
52434;SDS011;38354;52.892;6.148;2022-12-07T18:33:21;12.05;;;3.00;;
52434;SDS011;38354;52.892;6.148;2022-12-07T18:35:47;11.10;;;2.70;;
52434;SDS011;38354;52.892;6.148;2022-12-07T18:38:13;11.88;;;3.80;;
52434;SDS011;38354;52.892;6.148;2022-12-07T18:40:39;17.38;;;4.78;;
52434;SDS011;38354;52.892;6.148;2022-12-07T18:43:06;14.57;;;3.65;;
52434;SDS011;38354;52.892;6.148;2022-12-07T18:45:36;8.63;;;2.60;;
52434;SDS011;38354;52.892;6.148;2022-12-07T18:48:02;9.80;;;1.88;;
52434;SDS011;38354;52.892;6.148;2022-12-07T18:50:28;6.25;;;1.70;;
52434;SDS011;38354;52.892;6.148;2022-12-07T18:53:01;6.45;;;2.20;;
52434;SDS011;38354;52.892;6.148;2022-12-07T18:55:28;5.82;;;2.30;;
52434;SDS011;38354;52.892;6.148;2022-12-07T18:57:54;7.50;;;2.80;;
52434;SDS011;38354;52.892;6.148;2022-12-07T19:00:21;10.25;;;3.53;;
52434;SDS011;38354;52.892;6.148;2022-12-07T19:02:48;10.05;;;4.00;;
52434;SDS011;38354;52.892;6.148;2022-12-07T19:05:14;8.98;;;2.45;;
52434;SDS011;38354;52.892;6.148;2022-12-07T19:07:41;6.60;;;2.17;;
52434;SDS011;38354;52.892;6.148;2022-12-07T19:10:07;5.90;;;2.05;;
52434;SDS011;38354;52.892;6.148;2022-12-07T19:12:33;6.03;;;2.08;;
52434;SDS011;38354;52.892;6.148;2022-12-07T19:14:59;8.27;;;3.08;;
52434;SDS011;38354;52.892;6.148;2022-12-07T19:17:25;9.35;;;2.75;;
52434;SDS011;38354;52.892;6.148;2022-12-07T19:19:51;7.75;;;2.42;;
52434;SDS011;38354;52.892;6.148;2022-12-07T19:22:18;14.23;;;3.33;;
52434;SDS011;38354;52.892;6.148;2022-12-07T19:24:47;6.75;;;1.70;;
52434;SDS011;38354;52.892;6.148;2022-12-07T19:27:14;5.18;;;1.88;;
52434;SDS011;38354;52.892;6.148;2022-12-07T19:29:40;7.30;;;2.15;;
52434;SDS011;38354;52.892;6.148;2022-12-07T19:32:06;3.92;;;1.83;;
52434;SDS011;38354;52.892;6.148;2022-12-07T19:34:34;7.55;;;1.63;;
52434;SDS011;38354;52.892;6.148;2022-12-07T19:37:00;6.00;;;2.00;;
52434;SDS011;38354;52.892;6.148;2022-12-07T19:39:26;6.45;;;2.00;;
52434;SDS011;38354;52.892;6.148;2022-12-07T19:41:54;4.82;;;1.90;;
52434;SDS011;38354;52.892;6.148;2022-12-07T19:44:21;7.18;;;1.80;;
52434;SDS011;38354;52.892;6.148;2022-12-07T19:46:50;4.75;;;1.70;;
52434;SDS011;38354;52.892;6.148;2022-12-07T19:49:17;8.23;;;2.00;;
52434;SDS011;38354;52.892;6.148;2022-12-07T19:51:44;10.02;;;1.90;;
52434;SDS011;38354;52.892;6.148;2022-12-07T19:54:12;5.18;;;1.50;;
52434;SDS011;38354;52.892;6.148;2022-12-07T19:56:39;5.35;;;1.30;;
52434;SDS011;38354;52.892;6.148;2022-12-07T19:59:06;6.32;;;1.55;;
52434;SDS011;38354;52.892;6.148;2022-12-07T20:01:32;5.57;;;1.80;;
52434;SDS011;38354;52.892;6.148;2022-12-07T20:03:58;6.40;;;2.25;;
52434;SDS011;38354;52.892;6.148;2022-12-07T20:06:24;10.02;;;3.72;;
52434;SDS011;38354;52.892;6.148;2022-12-07T20:08:50;7.60;;;1.70;;
52434;SDS011;38354;52.892;6.148;2022-12-07T20:11:17;13.43;;;4.55;;
52434;SDS011;38354;52.892;6.148;2022-12-07T20:14:06;8.98;;;2.10;;
52434;SDS011;38354;52.892;6.148;2022-12-07T20:16:34;4.75;;;2.25;;
52434;SDS011;38354;52.892;6.148;2022-12-07T20:19:00;9.43;;;2.72;;
52434;SDS011;38354;52.892;6.148;2022-12-07T20:21:26;7.00;;;2.85;;
52434;SDS011;38354;52.892;6.148;2022-12-07T20:23:51;6.95;;;3.42;;
52434;SDS011;38354;52.892;6.148;2022-12-07T20:26:17;7.53;;;3.58;;
52434;SDS011;38354;52.892;6.148;2022-12-07T20:28:43;8.85;;;2.38;;
52434;SDS011;38354;52.892;6.148;2022-12-07T20:31:14;9.35;;;2.13;;
52434;SDS011;38354;52.892;6.148;2022-12-07T20:33:40;9.55;;;1.90;;
52434;SDS011;38354;52.892;6.148;2022-12-07T20:36:10;8.98;;;1.85;;
52434;SDS011;38354;52.892;6.148;2022-12-07T20:38:37;6.47;;;1.77;;
52434;SDS011;38354;52.892;6.148;2022-12-07T20:41:04;8.60;;;2.03;;